Time;durP1;ratioP1;P1;durP2;ratioP2;P2;SDS_P1;SDS_P2;PMS_P1;PMS_P2;Temp;Humidity;BMP_temperature;BMP_pressure;BME280_temperature;BME280_humidity;BME280_pressure;Samples;Min_cycle;Max_cycle;Signal;HPM_P1;HPM_P2
2023/01/30 00:00:55;;;;;;;43.00;19.25;;;5.70;99.90;;;;;;5071780;28;20497;-68
2023/01/30 00:03:21;;;;;;;37.78;17.88;;;5.70;99.90;;;;;;5070352;28;20067;-68
2023/01/30 00:05:47;;;;;;;39.90;20.98;;;5.70;99.90;;;;;;5069463;28;20098;-68
2023/01/30 00:08:13;;;;;;;38.50;19.40;;;5.80;99.90;;;;;;5071697;28;20059;-67
2023/01/30 00:10:39;;;;;;;37.78;19.02;;;5.70;99.90;;;;;;5071850;28;20511;-68
2023/01/30 00:13:04;;;;;;;38.83;19.98;;;5.80;99.90;;;;;;5071710;28;20041;-68
2023/01/30 00:15:30;;;;;;;43.08;19.70;;;5.80;99.90;;;;;;5069588;28;20029;-68
2023/01/30 00:17:56;;;;;;;40.42;19.25;;;5.80;99.90;;;;;;5071722;28;20463;-68
2023/01/30 00:20:21;;;;;;;42.33;19.67;;;5.90;99.90;;;;;;5071703;28;20036;-67
2023/01/30 00:22:47;;;;;;;39.33;19.02;;;5.90;99.90;;;;;;5070356;28;20082;-68
2023/01/30 00:25:12;;;;;;;38.05;18.98;;;5.90;99.90;;;;;;5071019;28;20071;-67
2023/01/30 00:27:38;;;;;;;40.83;18.73;;;5.90;99.90;;;;;;5071372;28;20036;-68
2023/01/30 00:30:06;;;;;;;35.58;18.10;;;6.00;99.90;;;;;;5071439;28;20035;-68
2023/01/30 00:32:32;;;;;;;40.63;17.92;;;6.00;99.90;;;;;;5071264;28;20501;-68
2023/01/30 00:34:58;;;;;;;36.17;17.02;;;6.00;99.90;;;;;;5070403;28;20496;-68
2023/01/30 00:37:23;;;;;;;30.95;17.23;;;6.10;99.90;;;;;;5071394;28;20036;-68
2023/01/30 00:39:49;;;;;;;33.70;16.90;;;6.10;99.90;;;;;;5069742;28;20036;-68
2023/01/30 00:47:43;;;;;;;34.53;16.88;;;6.30;99.90;;;;;;5071041;28;20489;-68
2023/01/30 00:50:09;;;;;;;33.53;16.23;;;6.30;99.90;;;;;;5069596;28;20036;-67
2023/01/30 00:52:35;;;;;;;34.15;16.58;;;6.30;99.90;;;;;;5052839;28;20541;-68
2023/01/30 00:55:00;;;;;;;32.28;15.55;;;6.30;99.90;;;;;;5070099;28;20032;-68
2023/01/30 00:57:26;;;;;;;29.48;15.27;;;6.40;99.90;;;;;;5070930;28;20036;-67
2023/01/30 00:59:51;;;;;;;33.97;15.30;;;6.40;99.90;;;;;;5070824;28;20040;-68
2023/01/30 01:02:17;;;;;;;29.52;15.50;;;6.40;99.90;;;;;;5069569;28;20047;-68
2023/01/30 01:04:42;;;;;;;31.13;15.43;;;6.40;99.90;;;;;;5070265;28;20123;-68
2023/01/30 01:07:13;;;;;;;25.75;13.98;;;6.50;99.90;;;;;;5069130;28;20033;-68
2023/01/30 01:09:39;;;;;;;28.50;14.55;;;6.50;99.90;;;;;;5062098;28;20055;-68
2023/01/30 01:12:05;;;;;;;28.08;14.73;;;6.60;99.90;;;;;;5069708;28;20044;-67
2023/01/30 01:14:31;;;;;;;26.27;14.10;;;6.60;99.90;;;;;;5070162;28;20413;-67
2023/01/30 01:16:57;;;;;;;29.92;16.13;;;6.60;99.90;;;;;;5070660;28;20036;-68
2023/01/30 01:19:23;;;;;;;26.17;13.70;;;6.60;99.90;;;;;;5070974;28;20094;-66
2023/01/30 01:21:48;;;;;;;28.98;13.98;;;6.60;99.90;;;;;;5070706;28;20451;-69
2023/01/30 01:24:14;;;;;;;23.98;13.82;;;6.60;99.90;;;;;;5068626;28;20076;-66
2023/01/30 01:26:41;;;;;;;29.05;14.45;;;6.60;99.90;;;;;;5070830;28;20047;-67
2023/01/30 01:29:10;;;;;;;23.20;13.80;;;6.70;99.90;;;;;;5070706;28;20071;-67
2023/01/30 01:31:35;;;;;;;27.55;13.23;;;6.60;99.90;;;;;;5070488;28;20148;-67
2023/01/30 01:34:01;;;;;;;27.25;13.30;;;6.60;99.90;;;;;;5069914;28;20062;-68
2023/01/30 01:36:26;;;;;;;23.92;13.23;;;6.60;99.90;;;;;;5070680;28;20502;-67
2023/01/30 01:38:52;;;;;;;28.98;13.55;;;6.70;99.90;;;;;;5070459;28;20059;-68
2023/01/30 01:41:18;;;;;;;29.75;14.15;;;6.60;99.90;;;;;;5069269;28;20072;-69
2023/01/30 01:44:01;;;;;;;28.05;13.40;;;6.70;99.90;;;;;;5070091;28;20036;-68
2023/01/30 01:46:55;;;;;;;28.17;12.88;;;6.60;99.90;;;;;;5070833;28;20044;-69
2023/01/30 01:49:26;;;;;;;21.55;12.43;;;6.60;99.90;;;;;;5063592;28;20059;-69
2023/01/30 01:52:14;;;;;;;19.92;10.25;;;6.60;99.90;;;;;;5069409;28;20040;-70
2023/01/30 01:54:43;;;;;;;21.83;11.73;;;6.60;99.90;;;;;;5069662;28;20055;-71
2023/01/30 01:57:14;;;;;;;20.98;10.25;;;6.60;99.90;;;;;;5069139;28;20044;-72
2023/01/30 01:59:46;;;;;;;19.73;11.18;;;6.60;99.90;;;;;;5069180;28;20048;-72
2023/01/30 02:02:13;;;;;;;20.08;10.57;;;6.60;99.90;;;;;;5069243;28;20048;-72
2023/01/30 02:05:02;;;;;;;19.77;10.40;;;6.60;99.90;;;;;;5070733;28;20036;-72
2023/01/30 02:07:50;;;;;;;20.85;10.38;;;6.60;99.90;;;;;;5072867;28;20123;-72
2023/01/30 02:10:23;;;;;;;17.05;9.30;;;6.70;99.90;;;;;;5072816;28;20044;-72
2023/01/30 02:12:50;;;;;;;15.05;7.53;;;6.70;99.90;;;;;;5073084;28;20516;-72
2023/01/30 02:15:17;;;;;;;18.02;8.18;;;6.70;99.90;;;;;;5073355;28;20075;-72
2023/01/30 02:17:42;;;;;;;13.38;7.65;;;6.70;99.90;;;;;;5074321;28;20041;-72
2023/01/30 02:20:16;;;;;;;17.10;6.90;;;6.70;99.90;;;;;;5072614;28;20044;-71
2023/01/30 02:23:01;;;;;;;13.45;6.57;;;6.70;99.90;;;;;;5073834;28;20513;-71
2023/01/30 02:25:45;;;;;;;14.32;5.85;;;6.70;99.90;;;;;;5073096;28;20044;-71
2023/01/30 02:28:34;;;;;;;10.80;5.70;;;6.70;99.90;;;;;;5074199;28;20037;-72
2023/01/30 02:31:10;;;;;;;11.65;6.25;;;6.70;99.90;;;;;;5072973;28;20059;-71
2023/01/30 02:33:55;;;;;;;13.63;5.20;;;6.70;99.90;;;;;;5078878;28;20046;-71
2023/01/30 02:36:48;;;;;;;10.20;5.05;;;6.80;99.90;;;;;;5075809;28;20047;-72
2023/01/30 02:39:37;;;;;;;8.73;4.63;;;6.80;99.90;;;;;;5073636;28;20048;-72
2023/01/30 02:42:22;;;;;;;11.52;4.65;;;6.80;99.90;;;;;;5073390;28;20044;-71
2023/01/30 02:45:11;;;;;;;6.70;4.00;;;6.80;99.90;;;;;;5071806;28;20511;-71
2023/01/30 02:47:44;;;;;;;6.80;4.13;;;6.80;99.90;;;;;;5073304;28;20373;-71
2023/01/30 02:50:24;;;;;;;11.18;4.35;;;6.80;99.90;;;;;;5073772;28;20072;-71
2023/01/30 02:52:51;;;;;;;11.15;4.35;;;6.80;99.90;;;;;;5072068;28;20044;-71
2023/01/30 02:55:20;;;;;;;6.82;4.22;;;6.80;99.90;;;;;;5072753;28;20064;-71
2023/01/30 02:57:46;;;;;;;7.07;3.42;;;6.80;99.90;;;;;;5073123;28;20048;-70
2023/01/30 03:00:17;;;;;;;9.43;4.15;;;6.80;99.90;;;;;;5073210;28;20036;-70
2023/01/30 03:03:05;;;;;;;7.85;3.95;;;6.80;99.90;;;;;;5073153;28;20052;-71
2023/01/30 03:05:58;;;;;;;9.00;3.30;;;6.80;99.90;;;;;;5071153;28;20044;-71
2023/01/30 03:08:54;;;;;;;3.63;3.00;;;6.80;99.90;;;;;;5071715;28;20073;-70
2023/01/30 03:11:26;;;;;;;9.07;3.97;;;6.80;99.90;;;;;;5073105;28;20361;-69
2023/01/30 03:14:01;;;;;;;4.70;3.05;;;6.90;99.90;;;;;;5072503;28;20089;-69
2023/01/30 03:16:36;;;;;;;5.45;3.50;;;6.90;99.90;;;;;;5073280;28;20115;-69
2023/01/30 03:19:05;;;;;;;9.07;3.40;;;6.90;99.90;;;;;;5072741;28;20036;-69
2023/01/30 03:21:31;;;;;;;6.35;3.65;;;6.90;99.90;;;;;;5072961;28;20041;-69
2023/01/30 03:23:57;;;;;;;8.00;3.70;;;6.90;99.90;;;;;;5071974;28;20090;-68
2023/01/30 03:26:28;;;;;;;8.57;4.20;;;6.90;99.90;;;;;;5071598;28;20082;-70
2023/01/30 03:28:54;;;;;;;8.50;3.50;;;6.90;99.90;;;;;;5072625;28;20040;-70
2023/01/30 03:31:20;;;;;;;9.18;3.58;;;6.90;99.90;;;;;;5072649;28;20051;-69
2023/01/30 03:33:46;;;;;;;7.53;3.83;;;6.90;99.90;;;;;;5072127;28;20044;-69
2023/01/30 03:36:12;;;;;;;11.15;3.78;;;6.90;99.90;;;;;;5072432;28;20599;-69
2023/01/30 03:38:37;;;;;;;6.78;3.25;;;7.00;99.90;;;;;;5071328;28;20050;-69
2023/01/30 03:41:04;;;;;;;7.78;3.67;;;7.00;99.90;;;;;;5070843;28;20497;-69
2023/01/30 03:43:30;;;;;;;10.02;3.65;;;7.00;99.90;;;;;;5074315;28;20045;-68
2023/01/30 03:45:55;;;;;;;13.38;3.78;;;7.00;99.90;;;;;;5073940;28;20040;-69
2023/01/30 03:48:21;;;;;;;11.00;4.00;;;7.00;99.90;;;;;;5072282;28;20058;-70
2023/01/30 03:50:47;;;;;;;13.98;4.65;;;7.00;99.90;;;;;;5072158;28;20123;-70
2023/01/30 03:53:12;;;;;;;9.82;3.47;;;7.00;99.90;;;;;;5071037;28;20120;-69
2023/01/30 03:55:39;;;;;;;10.63;4.45;;;7.00;99.90;;;;;;5071171;28;20090;-70
2023/01/30 03:58:05;;;;;;;18.13;4.80;;;7.00;99.90;;;;;;5072095;28;20045;-69
2023/01/30 04:00:30;;;;;;;16.70;4.45;;;7.00;99.90;;;;;;5071872;28;20090;-69
2023/01/30 04:02:57;;;;;;;12.98;3.58;;;7.00;99.90;;;;;;5071991;28;20048;-69
2023/01/30 04:05:23;;;;;;;14.63;4.25;;;7.00;99.90;;;;;;5069885;28;20044;-69
2023/01/30 04:07:50;;;;;;;11.88;3.60;;;7.00;99.90;;;;;;5072001;28;20037;-69
2023/01/30 04:10:18;;;;;;;8.85;3.70;;;7.00;99.90;;;;;;5070801;28;20079;-68
2023/01/30 04:12:44;;;;;;;11.88;3.55;;;7.00;99.90;;;;;;5070617;28;20041;-69
2023/01/30 04:15:10;;;;;;;16.63;3.85;;;7.00;99.90;;;;;;5069730;28;20052;-68
2023/01/30 04:17:36;;;;;;;13.70;3.60;;;7.00;99.90;;;;;;5070239;28;20036;-68
2023/01/30 04:20:03;;;;;;;10.38;3.47;;;7.00;99.90;;;;;;5070280;28;20032;-69
2023/01/30 04:22:28;;;;;;;13.70;3.55;;;7.00;99.90;;;;;;5070145;28;20043;-68
2023/01/30 04:24:54;;;;;;;12.88;4.22;;;7.00;99.90;;;;;;5070828;28;20040;-69
2023/01/30 04:27:19;;;;;;;19.55;4.40;;;7.00;99.90;;;;;;5069886;28;20043;-68
2023/01/30 04:29:45;;;;;;;11.80;3.38;;;7.00;99.90;;;;;;5071537;28;20050;-68
2023/01/30 04:32:10;;;;;;;14.40;3.60;;;7.00;99.90;;;;;;5071313;28;20489;-69
2023/01/30 04:34:36;;;;;;;9.23;3.42;;;7.00;99.90;;;;;;5070721;28;20078;-67
2023/01/30 04:37:02;;;;;;;18.90;3.78;;;7.10;99.90;;;;;;5071600;28;20365;-67
2023/01/30 04:39:27;;;;;;;16.25;3.90;;;7.00;99.90;;;;;;5070282;28;20047;-68
2023/01/30 04:41:53;;;;;;;11.10;3.55;;;7.00;99.90;;;;;;5070048;28;20119;-69
2023/01/30 04:44:18;;;;;;;16.58;3.95;;;7.10;99.90;;;;;;5069125;28;20115;-68
2023/01/30 04:46:44;;;;;;;11.88;4.60;;;7.00;99.90;;;;;;5071201;28;20445;-68
2023/01/30 04:49:10;;;;;;;12.20;3.85;;;7.00;99.90;;;;;;5071130;28;20082;-68
2023/01/30 04:51:36;;;;;;;13.13;4.32;;;7.00;99.90;;;;;;5071421;28;20058;-68
2023/01/30 04:54:01;;;;;;;17.65;3.97;;;7.00;99.90;;;;;;5069332;28;20115;-68
2023/01/30 04:56:27;;;;;;;9.63;3.53;;;7.00;99.90;;;;;;5067858;28;20032;-68
2023/01/30 04:58:53;;;;;;;19.80;4.50;;;7.00;99.90;;;;;;5064370;28;20032;-68
2023/01/30 05:01:24;;;;;;;11.00;3.53;;;6.90;99.90;;;;;;5070701;28;20043;-68
2023/01/30 05:03:53;;;;;;;16.45;3.70;;;6.90;99.90;;;;;;5068845;28;20555;-68
2023/01/30 05:06:20;;;;;;;12.05;3.50;;;6.90;99.90;;;;;;5070763;28;20032;-68
2023/01/30 05:08:53;;;;;;;13.10;4.13;;;6.80;99.90;;;;;;5070891;28;20063;-68
2023/01/30 05:11:19;;;;;;;16.60;3.30;;;6.80;99.90;;;;;;5071019;28;20076;-68
2023/01/30 05:13:45;;;;;;;14.70;3.95;;;6.80;99.90;;;;;;5066883;28;20515;-67
2023/01/30 05:16:12;;;;;;;21.92;3.60;;;6.90;99.90;;;;;;5069340;28;20044;-68
2023/01/30 05:18:37;;;;;;;13.40;2.92;;;6.80;99.90;;;;;;5069416;28;20040;-68
2023/01/30 05:21:09;;;;;;;10.50;2.72;;;6.80;99.90;;;;;;5069544;28;20044;-68
2023/01/30 05:23:35;;;;;;;16.38;2.70;;;6.80;99.90;;;;;;5070834;28;20037;-68
2023/01/30 05:26:01;;;;;;;16.73;3.17;;;6.80;99.90;;;;;;5070239;28;20039;-67
2023/01/30 05:28:27;;;;;;;18.48;3.33;;;6.80;99.90;;;;;;5069273;28;20048;-68
2023/01/30 05:30:53;;;;;;;10.68;3.45;;;6.80;99.90;;;;;;5070608;28;20048;-68
2023/01/30 05:33:19;;;;;;;19.50;4.25;;;6.80;99.90;;;;;;5070609;28;20111;-68
2023/01/30 05:35:48;;;;;;;14.32;4.80;;;6.80;99.90;;;;;;5069902;28;20085;-68
2023/01/30 05:38:15;;;;;;;16.00;4.53;;;6.70;99.90;;;;;;5069329;28;20047;-68
2023/01/30 05:40:41;;;;;;;24.30;4.68;;;6.70;99.90;;;;;;5074575;28;20040;-68
2023/01/30 05:43:08;;;;;;;13.65;3.35;;;6.70;99.90;;;;;;5074486;28;20585;-68
2023/01/30 05:45:35;;;;;;;12.18;3.95;;;6.70;99.90;;;;;;5072535;28;20112;-68
2023/01/30 05:48:00;;;;;;;18.52;3.75;;;6.60;99.90;;;;;;5074419;28;20489;-68
2023/01/30 05:50:26;;;;;;;21.80;4.10;;;6.60;99.90;;;;;;5073176;28;20040;-67
2023/01/30 05:52:51;;;;;;;17.42;4.25;;;6.60;99.90;;;;;;5073016;28;20033;-68
2023/01/30 05:55:17;;;;;;;18.60;3.53;;;6.50;99.90;;;;;;5073919;28;20032;-67
2023/01/30 05:57:43;;;;;;;17.67;3.85;;;6.50;99.90;;;;;;5072879;28;20040;-68
2023/01/30 06:00:09;;;;;;;13.73;3.88;;;6.50;99.90;;;;;;5074485;28;20040;-68
2023/01/30 06:02:35;;;;;;;9.52;3.13;;;6.40;99.90;;;;;;5074710;28;20059;-68
2023/01/30 06:05:01;;;;;;;33.45;6.75;;;6.40;99.90;;;;;;5074099;28;20040;-68
2023/01/30 06:07:26;;;;;;;25.63;4.65;;;6.40;99.90;;;;;;5073750;28;20039;-68
2023/01/30 06:09:52;;;;;;;29.85;5.03;;;6.40;99.90;;;;;;5074041;28;20162;-68
2023/01/30 06:12:17;;;;;;;13.85;3.80;;;6.40;99.90;;;;;;5074235;28;20080;-68
2023/01/30 06:14:43;;;;;;;17.63;2.97;;;6.30;99.90;;;;;;5072279;28;20048;-67
2023/01/30 06:17:09;;;;;;;22.50;4.03;;;6.30;99.90;;;;;;5074190;28;20044;-67
2023/01/30 06:19:34;;;;;;;18.88;3.85;;;6.30;99.90;;;;;;5073971;28;20040;-67
2023/01/30 06:22:01;;;;;;;14.02;3.33;;;6.30;99.90;;;;;;5073811;28;20049;-68
2023/01/30 06:24:27;;;;;;;18.75;3.85;;;6.20;99.90;;;;;;5071662;28;20653;-68
2023/01/30 06:26:53;;;;;;;15.40;3.40;;;6.20;99.90;;;;;;5072451;28;20120;-68
2023/01/30 06:29:19;;;;;;;13.60;3.40;;;6.20;99.90;;;;;;5073933;28;20079;-68
2023/01/30 06:31:45;;;;;;;17.25;4.53;;;6.20;99.90;;;;;;5073161;28;20040;-69
2023/01/30 06:34:11;;;;;;;11.52;3.47;;;6.20;99.90;;;;;;5070874;28;20131;-67
2023/01/30 06:36:36;;;;;;;13.32;3.45;;;6.20;99.90;;;;;;5071110;28;20119;-72
2023/01/30 06:39:02;;;;;;;14.90;2.80;;;6.10;99.90;;;;;;5072407;28;20040;-68
2023/01/30 06:41:28;;;;;;;11.25;3.45;;;6.10;99.90;;;;;;5072505;28;20040;-68
2023/01/30 06:43:54;;;;;;;13.43;2.92;;;6.10;99.90;;;;;;5071825;28;20082;-68
2023/01/30 06:46:20;;;;;;;14.43;2.70;;;6.10;99.90;;;;;;5071265;28;20049;-68
2023/01/30 06:48:45;;;;;;;19.60;3.35;;;6.10;99.90;;;;;;5072439;28;20037;-68
2023/01/30 06:51:11;;;;;;;18.52;3.33;;;6.20;99.90;;;;;;5072093;28;20037;-68
2023/01/30 06:53:37;;;;;;;16.92;3.08;;;6.10;99.90;;;;;;5072203;28;20120;-68
2023/01/30 06:56:02;;;;;;;19.38;3.35;;;6.10;99.90;;;;;;5070399;28;20412;-68
2023/01/30 06:58:28;;;;;;;17.60;3.45;;;6.10;99.90;;;;;;5072379;28;20039;-68
2023/01/30 07:00:54;;;;;;;17.95;3.05;;;6.20;99.90;;;;;;5072390;28;20047;-68
2023/01/30 07:03:19;;;;;;;13.25;3.80;;;6.20;99.90;;;;;;5072283;28;20032;-68
2023/01/30 07:05:46;;;;;;;13.07;2.67;;;6.20;99.90;;;;;;5071455;28;20511;-69
2023/01/30 07:08:13;;;;;;;14.10;5.57;;;6.20;99.90;;;;;;5071901;28;20037;-69
2023/01/30 07:10:40;;;;;;;21.20;4.90;;;6.20;99.90;;;;;;5072542;28;20029;-68
2023/01/30 07:13:05;;;;;;;15.82;4.28;;;6.20;99.90;;;;;;5066699;28;20195;-68
2023/01/30 07:15:31;;;;;;;18.58;4.82;;;6.20;99.90;;;;;;5062205;28;20032;-68
2023/01/30 07:17:57;;;;;;;15.48;3.03;;;6.10;99.90;;;;;;5061779;28;20520;-68
2023/01/30 07:20:23;;;;;;;19.58;4.28;;;6.20;99.90;;;;;;5068021;28;20036;-69
2023/01/30 07:22:52;;;;;;;20.90;3.25;;;6.20;99.90;;;;;;5071682;28;20102;-69
2023/01/30 07:25:20;;;;;;;14.23;2.15;;;6.20;99.90;;;;;;5068393;28;20043;-69
2023/01/30 07:27:53;;;;;;;28.58;3.75;;;6.30;99.90;;;;;;5068994;28;20301;-70
2023/01/30 07:30:19;;;;;;;25.08;3.85;;;6.30;99.90;;;;;;5031208;28;1065036;-68
2023/01/30 07:32:53;;;;;;;19.60;4.20;;;6.30;99.90;;;;;;5073022;28;20075;-69
2023/01/30 07:35:19;;;;;;;12.63;3.10;;;6.30;99.90;;;;;;5071739;28;20051;-69
2023/01/30 07:37:48;;;;;;;17.58;4.82;;;6.20;99.90;;;;;;5072676;28;20052;-69
2023/01/30 07:40:15;;;;;;;26.30;5.55;;;6.20;99.90;;;;;;5072509;28;20036;-69
2023/01/30 07:42:40;;;;;;;19.13;4.13;;;6.20;99.90;;;;;;5071245;28;20165;-69
2023/01/30 07:45:07;;;;;;;15.73;5.28;;;6.20;99.90;;;;;;5071772;28;20033;-70
2023/01/30 07:47:32;;;;;;;17.10;4.18;;;6.20;99.90;;;;;;5070983;28;20083;-69
2023/01/30 07:49:58;;;;;;;28.27;5.57;;;6.20;99.90;;;;;;5072065;28;20076;-69
2023/01/30 07:52:23;;;;;;;21.65;4.30;;;6.10;99.90;;;;;;5072501;28;20064;-69
2023/01/30 07:54:49;;;;;;;23.83;4.57;;;6.20;99.90;;;;;;5070443;28;20088;-69
2023/01/30 07:57:14;;;;;;;12.65;2.88;;;6.20;99.90;;;;;;5072218;28;20051;-69
2023/01/30 07:59:41;;;;;;;20.75;4.07;;;6.20;99.90;;;;;;5072389;28;20040;-68
2023/01/30 08:02:09;;;;;;;16.35;3.25;;;6.20;99.90;;;;;;5071523;28;20048;-69
2023/01/30 08:04:35;;;;;;;18.67;3.00;;;6.20;99.90;;;;;;5071287;28;20046;-69
2023/01/30 08:07:00;;;;;;;17.48;3.58;;;6.30;99.90;;;;;;5069923;28;20040;-69
2023/01/30 08:09:26;;;;;;;16.00;3.97;;;6.30;99.90;;;;;;5071916;28;20037;-69
2023/01/30 08:11:52;;;;;;;17.60;3.50;;;6.20;99.90;;;;;;5071869;28;20048;-69
2023/01/30 08:14:17;;;;;;;21.38;4.57;;;6.20;99.90;;;;;;5069803;28;20047;-69
2023/01/30 08:16:43;;;;;;;16.17;3.60;;;6.20;99.90;;;;;;5054130;28;20048;-69
2023/01/30 08:19:09;;;;;;;11.65;3.10;;;6.30;99.90;;;;;;5071572;28;20051;-69
2023/01/30 08:21:34;;;;;;;34.53;4.05;;;6.30;99.90;;;;;;5070308;28;20123;-69
2023/01/30 08:24:00;;;;;;;12.18;3.45;;;6.30;99.90;;;;;;5071429;28;20070;-69
2023/01/30 08:26:25;;;;;;;21.77;3.47;;;6.30;99.90;;;;;;5073397;28;20040;-69
2023/01/30 08:28:51;;;;;;;25.20;3.60;;;6.30;99.90;;;;;;5072551;28;20401;-69
2023/01/30 08:31:17;;;;;;;27.88;4.68;;;6.40;99.90;;;;;;5071307;28;20377;-69
2023/01/30 08:33:43;;;;;;;25.05;3.50;;;6.30;99.90;;;;;;5053395;28;20044;-69
2023/01/30 08:36:08;;;;;;;18.88;3.00;;;6.40;99.90;;;;;;5071446;28;20074;-69
2023/01/30 08:38:34;;;;;;;18.27;2.60;;;6.40;99.90;;;;;;5071320;28;20550;-69
2023/01/30 08:41:02;;;;;;;21.58;3.30;;;6.40;99.90;;;;;;5071505;28;20177;-69
2023/01/30 08:43:28;;;;;;;14.90;3.50;;;6.40;99.90;;;;;;5071098;28;20086;-68
2023/01/30 08:45:54;;;;;;;18.67;3.85;;;6.40;99.90;;;;;;5070672;28;20032;-69
2023/01/30 08:48:20;;;;;;;19.90;3.67;;;6.40;99.90;;;;;;5070035;28;20052;-69
2023/01/30 08:50:45;;;;;;;18.67;3.58;;;6.50;99.90;;;;;;5070124;28;20045;-69
2023/01/30 08:53:11;;;;;;;17.83;3.63;;;6.50;99.90;;;;;;5071238;28;20447;-69
2023/01/30 08:55:37;;;;;;;16.75;3.10;;;6.50;99.90;;;;;;5069095;28;20558;-68
2023/01/30 08:58:02;;;;;;;16.15;3.55;;;6.50;99.90;;;;;;5071253;28;20063;-69
2023/01/30 09:00:28;;;;;;;24.02;3.63;;;6.50;99.90;;;;;;5070961;28;20052;-69
2023/01/30 09:02:55;;;;;;;20.70;3.83;;;6.50;99.90;;;;;;5070950;28;20040;-69
2023/01/30 09:05:21;;;;;;;18.80;3.63;;;6.50;99.90;;;;;;5070549;28;20043;-69
2023/01/30 09:07:46;;;;;;;19.20;3.83;;;6.50;99.90;;;;;;5071179;28;20040;-69
2023/01/30 09:10:12;;;;;;;13.57;3.28;;;6.50;99.90;;;;;;5071081;28;20681;-69
2023/01/30 09:12:38;;;;;;;21.70;4.53;;;6.60;99.90;;;;;;5070881;28;20048;-68
2023/01/30 09:15:04;;;;;;;20.50;3.80;;;6.60;99.90;;;;;;5069042;28;20047;-69
2023/01/30 09:17:30;;;;;;;19.52;3.90;;;6.60;99.90;;;;;;5069489;28;20044;-69
2023/01/30 09:19:55;;;;;;;19.13;3.38;;;6.60;99.90;;;;;;5070754;28;20586;-69
2023/01/30 09:22:21;;;;;;;18.88;3.10;;;6.60;99.90;;;;;;5070891;28;20040;-69
2023/01/30 09:24:46;;;;;;;19.40;3.25;;;6.60;99.90;;;;;;5068771;28;20041;-69
2023/01/30 09:27:12;;;;;;;22.00;3.42;;;6.60;99.90;;;;;;5070807;28;20086;-69
2023/01/30 09:29:37;;;;;;;18.75;3.35;;;6.70;99.90;;;;;;5070675;28;20044;-69
2023/01/30 09:32:03;;;;;;;16.50;3.00;;;6.70;99.90;;;;;;5069945;28;20531;-69
2023/01/30 09:34:29;;;;;;;28.63;3.88;;;6.70;99.90;;;;;;5069531;28;20036;-69
2023/01/30 09:36:56;;;;;;;14.85;2.65;;;6.80;99.90;;;;;;5071182;28;20450;-69
2023/01/30 09:39:21;;;;;;;20.70;3.47;;;6.80;99.90;;;;;;5070950;28;20044;-69
2023/01/30 09:41:59;;;;;;;24.70;3.72;;;6.80;99.90;;;;;;5070382;28;20051;-69
2023/01/30 09:45:05;;;;;;;16.80;3.88;;;6.90;99.90;;;;;;5051855;28;20041;-69
2023/01/30 09:47:38;;;;;;;13.90;4.00;;;6.80;99.90;;;;;;5070500;28;20564;-69
2023/01/30 09:50:25;;;;;;;13.13;3.35;;;6.80;99.90;;;;;;5070682;28;20095;-69
2023/01/30 09:52:59;;;;;;;19.90;2.95;;;6.90;99.90;;;;;;5068733;28;20037;-69
2023/01/30 09:55:36;;;;;;;22.70;3.75;;;6.90;99.90;;;;;;5068588;28;20127;-69
2023/01/30 09:58:01;;;;;;;22.85;3.42;;;7.00;99.90;;;;;;5069006;28;20511;-70
2023/01/30 10:00:45;;;;;;;17.73;3.42;;;7.00;99.90;;;;;;5070525;28;20033;-69
2023/01/30 10:03:14;;;;;;;17.50;3.50;;;7.10;99.90;;;;;;5070252;28;20432;-69
2023/01/30 10:05:50;;;;;;;16.20;3.17;;;7.00;99.90;;;;;;5051799;28;20473;-69
2023/01/30 10:08:37;;;;;;;19.60;3.65;;;7.10;99.90;;;;;;5069035;28;20059;-69
2023/01/30 10:11:19;;;;;;;25.75;4.22;;;7.10;99.90;;;;;;5070693;28;20044;-68
2023/01/30 10:13:56;;;;;;;15.18;3.20;;;7.10;99.90;;;;;;5069571;28;20049;-68
2023/01/30 10:16:53;;;;;;;14.73;3.28;;;7.10;99.90;;;;;;5069122;28;20041;-68
2023/01/30 10:19:24;;;;;;;16.75;3.50;;;7.10;99.90;;;;;;5069281;28;20393;-69
2023/01/30 10:22:01;;;;;;;22.33;3.88;;;7.10;99.90;;;;;;5070559;28;20122;-69
2023/01/30 10:24:26;;;;;;;16.13;3.22;;;7.20;99.90;;;;;;5070269;28;20040;-68
2023/01/30 10:26:53;;;;;;;30.77;4.07;;;7.20;99.90;;;;;;5072499;28;20386;-68
2023/01/30 10:29:30;;;;;;;18.70;4.63;;;7.30;99.90;;;;;;5072511;28;20051;-69
2023/01/30 10:32:02;;;;;;;17.95;3.35;;;7.30;99.90;;;;;;5073657;28;20166;-68
2023/01/30 10:34:35;;;;;;;16.33;4.05;;;7.30;99.90;;;;;;5072792;28;20378;-68
2023/01/30 10:37:12;;;;;;;34.22;4.85;;;7.40;99.90;;;;;;5072365;28;20129;-72
2023/01/30 10:39:50;;;;;;;25.10;4.10;;;7.40;99.90;;;;;;5072383;28;20060;-72
2023/01/30 10:42:22;;;;;;;15.77;3.45;;;7.50;99.90;;;;;;5066390;28;20052;-74
2023/01/30 10:44:48;;;;;;;14.80;2.88;;;7.50;99.90;;;;;;5062006;28;20363;-70
2023/01/30 10:47:29;;;;;;;27.00;4.55;;;7.50;99.90;;;;;;5067391;28;20111;-68
2023/01/30 10:50:00;;;;;;;23.70;3.92;;;7.50;99.90;;;;;;5053471;28;20605;-68
2023/01/30 10:52:35;;;;;;;19.15;3.88;;;7.50;99.90;;;;;;5053517;28;20516;-69
2023/01/30 10:55:12;;;;;;;21.92;4.20;;;7.50;99.90;;;;;;5065910;28;20040;-69
2023/01/30 10:58:15;;;;;;;17.90;3.70;;;7.50;99.90;;;;;;5073444;28;20036;-70
2023/01/30 11:00:49;;;;;;;23.40;4.20;;;7.60;99.90;;;;;;5056899;28;20059;-69
2023/01/30 11:03:27;;;;;;;18.13;3.70;;;7.60;99.90;;;;;;5072483;28;20040;-70
2023/01/30 11:06:00;;;;;;;16.85;3.60;;;7.60;99.90;;;;;;5072532;28;20119;-70
2023/01/30 11:08:32;;;;;;;15.18;4.22;;;7.60;99.90;;;;;;5073295;28;20062;-69
2023/01/30 11:10:58;;;;;;;17.83;3.10;;;7.70;99.90;;;;;;5073162;28;20064;-69
2023/01/30 11:13:32;;;;;;;15.02;2.50;;;7.70;99.90;;;;;;5073071;28;20040;-70
2023/01/30 11:16:06;;;;;;;15.93;3.13;;;7.80;99.90;;;;;;5072447;28;20124;-71
2023/01/30 11:18:42;;;;;;;20.95;4.05;;;7.90;99.90;;;;;;5071973;28;20048;-70
2023/01/30 11:21:13;;;;;;;17.27;3.22;;;7.80;99.90;;;;;;5071507;28;20052;-71
2023/01/30 11:23:41;;;;;;;16.55;3.05;;;7.80;99.90;;;;;;5073164;28;20038;-71
2023/01/30 11:26:18;;;;;;;23.58;3.53;;;7.80;99.90;;;;;;5071164;28;20089;-72
2023/01/30 11:30:59;;;;;;;14.13;3.03;;;7.70;99.90;;;;;;5150053;27;20673;-77
2023/01/30 11:33:33;;;;;;;30.40;5.82;;;7.50;99.90;;;;;;5131635;27;20593;-75
2023/01/30 11:36:05;;;;;;;21.17;3.38;;;7.50;99.90;;;;;;5149294;27;20075;-73
2023/01/30 11:38:38;;;;;;;19.92;3.78;;;7.50;99.90;;;;;;5151548;27;20043;-74
2023/01/30 11:41:09;;;;;;;12.27;3.28;;;7.50;99.90;;;;;;5129258;28;20075;-72
2023/01/30 11:43:38;;;;;;;29.13;3.75;;;7.50;99.90;;;;;;5111061;28;20060;-71
2023/01/30 11:46:10;;;;;;;16.35;2.97;;;7.50;99.90;;;;;;5129603;28;20054;-71
2023/01/30 11:49:02;;;;;;;18.70;3.90;;;7.50;99.90;;;;;;5111750;28;20419;-72
2023/01/30 11:51:29;;;;;;;15.85;3.67;;;7.60;99.90;;;;;;5130470;28;20055;-71
2023/01/30 11:54:05;;;;;;;12.45;3.13;;;7.60;99.90;;;;;;5128876;28;20036;-71
2023/01/30 11:56:35;;;;;;;17.92;3.10;;;7.60;99.90;;;;;;5111217;28;20039;-71
2023/01/30 11:59:31;;;;;;;13.18;3.03;;;7.70;99.90;;;;;;5129307;27;20043;-71
2023/01/30 12:02:27;;;;;;;21.75;3.30;;;7.70;99.90;;;;;;5110470;28;20043;-71
2023/01/30 12:05:00;;;;;;;23.70;3.45;;;7.60;99.90;;;;;;5109637;28;20051;-71
2023/01/30 12:07:28;;;;;;;16.38;3.05;;;7.50;99.90;;;;;;5093597;28;20114;-71
2023/01/30 12:09:56;;;;;;;10.00;3.25;;;7.50;99.90;;;;;;5128561;28;20130;-71
2023/01/30 12:12:33;;;;;;;9.32;2.47;;;7.40;99.90;;;;;;5108916;28;20039;-70
2023/01/30 12:15:25;;;;;;;6.68;2.67;;;7.40;99.90;;;;;;5118204;28;20063;-69
2023/01/30 12:18:03;;;;;;;14.60;3.78;;;7.30;99.90;;;;;;5120066;27;20051;-70
2023/01/30 12:20:35;;;;;;;15.38;2.85;;;7.20;99.90;;;;;;5089540;28;20054;-71
2023/01/30 12:23:06;;;;;;;6.97;2.38;;;7.20;99.90;;;;;;5117990;28;20134;-70
2023/01/30 12:25:41;;;;;;;5.45;2.53;;;7.10;99.90;;;;;;5122425;27;20088;-70
2023/01/30 12:28:35;;;;;;;14.95;2.13;;;7.10;99.90;;;;;;5108947;28;20051;-70
2023/01/30 12:31:10;;;;;;;8.48;2.65;;;7.00;99.90;;;;;;5121230;28;20100;-71
2023/01/30 12:33:36;;;;;;;5.30;2.35;;;7.00;99.90;;;;;;5127897;28;20046;-70
2023/01/30 12:36:10;;;;;;;10.85;3.22;;;7.10;99.90;;;;;;5126763;28;20118;-70
2023/01/30 12:39:18;;;;;;;9.30;2.05;;;7.10;99.90;;;;;;5134343;27;20414;-70
2023/01/30 12:42:15;;;;;;;12.05;2.72;;;7.20;99.90;;;;;;5092436;28;20051;-69
2023/01/30 12:44:58;;;;;;;8.05;2.17;;;7.20;99.90;;;;;;5111025;28;20088;-70
2023/01/30 12:47:52;;;;;;;11.93;2.33;;;7.30;99.90;;;;;;5075783;28;20039;-70
2023/01/30 12:50:20;;;;;;;9.50;2.20;;;7.20;99.90;;;;;;5113683;28;20032;-70
2023/01/30 12:52:56;;;;;;;11.20;2.17;;;7.30;99.90;;;;;;5095103;28;20122;-68
2023/01/30 12:55:48;;;;;;;13.38;2.97;;;7.20;99.90;;;;;;5112788;28;20445;-68
2023/01/30 12:58:44;;;;;;;16.70;4.22;;;7.30;99.90;;;;;;5097677;28;20039;-69
2023/01/30 13:01:43;;;;;;;12.68;2.92;;;7.30;99.90;;;;;;5113019;28;20496;-69
2023/01/30 13:04:08;;;;;;;10.48;2.30;;;7.30;99.90;;;;;;5108711;28;20118;-69
2023/01/30 13:06:45;;;;;;;20.80;2.42;;;7.30;99.90;;;;;;5112809;28;20118;-69
2023/01/30 13:09:34;;;;;;;9.15;2.60;;;7.30;99.90;;;;;;5110679;28;20157;-69